^^
MeteoGriva-Weather Station Historical Data
Daily Summary for June 29, 2020 Units:  Metric    English   Both
Daily Weekly Monthly Yearly Custom
  High: Low: Average:
Temperature: 13.2 °C 8.2 °C 9.7 °C
Dew Point: 11.8 °C 6 °C 8.8 °C
Humidity: 99% 69.8% 94%
Wind Speed: 1.6km/h 0km/h 0km/h
Wind Gust: 7.9km/h - -
Wind- - ESE
Pressure: 1027.4 hPa 1012.5 hPa -
Precipitation: 0.2 mm    
Historical Graphs
 
 
Tabular Data for June 29, 2020
Time Temperature Dew Point Pressure Wind Wind Speed Wind Gust Humidity Rainfall Rate (Hourly) solar
00:04 8.7 °C 6.1 °C 1015.6 hPa Calm     84.4% 0.0 mm 0 W/m2
00:09 8.5 °C 6 °C 1015.6 hPa Calm     84.1% 0.0 mm 0 W/m2
00:14 8.4 °C 6.1 °C 1015.6 hPa Calm     85.7% 0.0 mm 0 W/m2
00:19 8.3 °C 6.6 °C 1015.6 hPa Calm     88.8% 0.0 mm 0 W/m2
00:24 8.3 °C 6.7 °C 1015.6 hPa Calm     89.8% 0.0 mm 0 W/m2
00:29 8.3 °C 6.8 °C 1015.6 hPa Calm     90% 0.0 mm 0 W/m2
00:34 8.3 °C 6.8 °C 1015.6 hPa Calm     90.1% 0.0 mm 0 W/m2
00:39 8.4 °C 7 °C 1015.2 hPa Calm     91% 0.0 mm 0 W/m2
00:44 8.4 °C 7.2 °C 1015.6 hPa Calm     92% 0.0 mm 0 W/m2
00:49 8.4 °C 7.3 °C 1015.2 hPa Calm     92.7% 0.0 mm 0 W/m2
00:54 8.6 °C 7.5 °C 1015.2 hPa Calm     93% 0.0 mm 0 W/m2
00:59 8.7 °C 7.8 °C 1015.2 hPa Calm     93.8% 0.0 mm 0 W/m2
01:04 8.7 °C 7.8 °C 1015.2 hPa Calm     94% 0.0 mm 0 W/m2
01:09 8.7 °C 8 °C 1015.2 hPa Calm     95.7% 0.0 mm 0 W/m2
01:14 8.6 °C 8.2 °C 1015.2 hPa Calm     97.2% 0.0 mm 0 W/m2
01:19 8.5 °C 8 °C 1015.2 hPa Calm     96.6% 0.0 mm 0 W/m2
01:24 8.5 °C 8.1 °C 1015.2 hPa Calm     97% 0.0 mm 0 W/m2
01:29 8.5 °C 8.2 °C 1015.2 hPa Calm     97.4% 0.0 mm 0 W/m2
01:34 8.5 °C 8.2 °C 1015.2 hPa Calm     97.9% 0.0 mm 0 W/m2
01:39 8.5 °C 8.2 °C 1015.2 hPa Calm     97.9% 0.0 mm 0 W/m2
01:44 8.5 °C 8.2 °C 1015.2 hPa Calm     98% 0.0 mm 0 W/m2
01:49 8.5 °C 8.1 °C 1014.9 hPa Calm     97.4% 0.0 mm 0 W/m2
01:54 8.5 °C 7.9 °C 1014.9 hPa Calm     96% 0.0 mm 0 W/m2
01:59 8.5 °C 7.9 °C 1014.9 hPa Calm     96% 0.0 mm 0 W/m2
02:04 8.5 °C 8 °C 1015.2 hPa Calm     96.6% 0.0 mm 0 W/m2
02:09 8.5 °C 8.1 °C 1014.9 hPa Calm     97% 0.0 mm 0 W/m2
02:14 8.5 °C 8 °C 1014.9 hPa Calm     96.4% 0.0 mm 0 W/m2
02:19 8.4 °C 8 °C 1014.9 hPa Calm     97.1% 0.0 mm 0 W/m2
02:24 8.4 °C 8.2 °C 1014.9 hPa Calm     98.7% 0.0 mm 0 W/m2
02:29 8.4 °C 8.2 °C 1014.9 hPa Calm     98.6% 0.0 mm 0 W/m2
02:34 8.4 °C 8.3 °C 1014.9 hPa Calm     99% 0.0 mm 0 W/m2
02:39 8.3 °C 8.2 °C 1015.2 hPa Calm     99% 0.0 mm 0 W/m2
02:44 8.3 °C 8.2 °C 1015.2 hPa Calm     99% 0.0 mm 0 W/m2
02:49 8.3 °C 8.2 °C 1015.2 hPa Calm     99% 0.0 mm 0 W/m2
02:54 8.4 °C 8.3 °C 1015.2 hPa Calm     99% 0.0 mm 0 W/m2
02:59 8.6 °C 8.5 °C 1015.2 hPa Calm     99% 0.0 mm 0 W/m2
03:04 8.6 °C 8.5 °C 1015.2 hPa Calm     99% 0.0 mm 0 W/m2
03:09 8.5 °C 8.4 °C 1015.2 hPa Calm     99% 0.0 mm 0 W/m2
03:14 8.5 °C 8.4 °C 1014.9 hPa Calm     99% 0.0 mm 0 W/m2
03:19 8.3 °C 8.2 °C 1014.9 hPa Calm     99% 0.0 mm 0 W/m2
03:24 8.3 °C 8.2 °C 1014.9 hPa Calm     99% 0.0 mm 0 W/m2
03:29 8.3 °C 8.2 °C 1014.6 hPa Calm     99% 0.0 mm 0 W/m2
03:34 8.3 °C 8.2 °C 1014.9 hPa Calm     99% 0.0 mm 0 W/m2
03:39 8.4 °C 8.3 °C 1014.9 hPa Calm     99% 0.0 mm 0 W/m2
03:44 8.3 °C 8.2 °C 1014.6 hPa Calm     99% 0.0 mm 0 W/m2
03:49 8.3 °C 8.2 °C 1014.6 hPa Calm     99% 0.0 mm 0 W/m2
03:54 8.3 °C 8.2 °C 1014.6 hPa Calm     99% 0.0 mm 0 W/m2
03:59 8.3 °C 8.2 °C 1014.6 hPa Calm     99% 0.0 mm 0 W/m2
04:04 8.3 °C 8.2 °C 1014.6 hPa Calm     99% 0.0 mm 0 W/m2
04:09 8.3 °C 8.2 °C 1014.6 hPa Calm     99% 0.0 mm 0 W/m2
04:14 8.3 °C 8.2 °C 1014.6 hPa Calm     99% 0.0 mm 0 W/m2
04:19 8.4 °C 8.3 °C 1014.6 hPa Calm     99% 0.0 mm 0 W/m2
04:24 8.4 °C 8.3 °C 1014.6 hPa Calm     99% 0.0 mm 0 W/m2
04:29 8.4 °C 8.3 °C 1014.2 hPa Calm     99% 0.0 mm 0 W/m2
04:34 8.4 °C 8.3 °C 1014.2 hPa Calm     99% 0.0 mm 0 W/m2
04:39 8.3 °C 8.2 °C 1014.6 hPa Calm     99% 0.0 mm 0 W/m2
04:44 8.3 °C 8.2 °C 1014.6 hPa Calm     99% 0.0 mm 0 W/m2
04:49 8.3 °C 8.2 °C 1014.2 hPa Calm     99% 0.0 mm 0 W/m2
04:54 8.4 °C 8.3 °C 1014.2 hPa Calm     99% 0.0 mm 0 W/m2
04:59 8.5 °C 8.4 °C 1014.2 hPa Calm     99% 0.0 mm 0 W/m2
05:04 8.5 °C 8.4 °C 1014.2 hPa Calm     99% 0.0 mm 0 W/m2
05:09 8.6 °C 8.4 °C 1014.2 hPa Calm     99% 0.0 mm 0 W/m2
05:14 8.6 °C 8.5 °C 1014.2 hPa Calm     99% 0.0 mm 0 W/m2
05:19 8.6 °C 8.5 °C 1014.2 hPa Calm     99% 0.0 mm 0 W/m2
05:24 8.6 °C 8.5 °C 1014.2 hPa Calm     99% 0.0 mm 0 W/m2
05:29 8.6 °C 8.5 °C 1014.2 hPa Calm     99% 0.0 mm 0 W/m2
05:34 8.6 °C 8.5 °C 1014.2 hPa Calm     99% 0.0 mm 0 W/m2
05:39 8.4 °C 8.3 °C 1014.2 hPa Calm     99% 0.0 mm 0 W/m2
05:44 8.4 °C 8.3 °C 1014.2 hPa Calm     99% 0.0 mm 0 W/m2
05:49 8.4 °C 8.3 °C 1014.2 hPa Calm     99% 0.0 mm 0 W/m2
05:54 8.4 °C 8.3 °C 1014.2 hPa Calm     99% 0.0 mm 0 W/m2
05:59 8.7 °C 8.6 °C 1013.9 hPa Calm     99% 0.0 mm 0 W/m2
06:04 8.7 °C 8.6 °C 1014.2 hPa Calm     99% 0.0 mm 0 W/m2
06:09 8.7 °C 8.6 °C 1014.2 hPa Calm     99% 0.0 mm 0 W/m2
06:14 8.7 °C 8.6 °C 1014.2 hPa Calm     99% 0.0 mm 0 W/m2
06:19 8.5 °C 8.4 °C 1014.2 hPa Calm     99% 0.0 mm 0 W/m2
06:24 8.5 °C 8.4 °C 1014.2 hPa Calm     99% 0.0 mm 0 W/m2
06:29 8.5 °C 8.4 °C 1013.9 hPa Calm     99% 0.0 mm 0 W/m2
06:34 8.4 °C 8.3 °C 1013.9 hPa Calm     99% 0.0 mm 0 W/m2
06:39 8.5 °C 8.4 °C 1013.9 hPa Calm     99% 0.0 mm 0 W/m2
06:44 8.5 °C 8.2 °C 1013.9 hPa Calm     98.1% 0.0 mm 0 W/m2
06:49 8.5 °C 8.2 °C 1014.2 hPa Calm     98% 0.0 mm 0 W/m2
06:54 8.5 °C 8.1 °C 1014.2 hPa Calm     97.1% 0.0 mm 0 W/m2
06:59 8.9 °C 8.3 °C 1013.9 hPa Calm     96.2% 0.0 mm 0 W/m2
07:04 9 °C 8.2 °C 1013.9 hPa Calm     94.9% 0.0 mm 0 W/m2
07:09 9 °C 8.1 °C 1013.9 hPa Calm     94.3% 0.0 mm 0 W/m2
07:14 9 °C 8.2 °C 1013.9 hPa Calm     94.9% 0.0 mm 0 W/m2
07:19 9.3 °C 8.4 °C 1013.9 hPa Calm     94.3% 0.0 mm 0 W/m2
07:24 9.3 °C 8.4 °C 1013.9 hPa Calm     94% 0.0 mm 0 W/m2
07:29 9.3 °C 8.4 °C 1013.9 hPa Calm     94% 0.0 mm 0 W/m2
07:34 9.3 °C 8.3 °C 1013.9 hPa Calm     93.5% 0.0 mm 0 W/m2
07:39 8.8 °C 8.3 °C 1013.9 hPa Calm     96.6% 0.0 mm 0 W/m2
07:44 8.7 °C 8.3 °C 1014.2 hPa Calm     97.4% 0.0 mm 0 W/m2
07:49 8.7 °C 8.4 °C 1014.2 hPa Calm     98% 0.0 mm 3 W/m2
07:54 8.6 °C 8.3 °C 1014.2 hPa Calm     98% 0.0 mm 5 W/m2
07:59 8.4 °C 8.1 °C 1014.2 hPa Calm     98% 0.0 mm 9 W/m2
08:04 8.2 °C 7.8 °C 1014.2 hPa Calm     97.6% 0.0 mm 12 W/m2
08:09 8.3 °C 7.8 °C 1014.2 hPa Calm     96.4% 0.0 mm 17 W/m2
08:14 8.3 °C 7.8 °C 1014.2 hPa Calm     96.3% 0.0 mm 25 W/m2
08:19 8.7 °C 8.1 °C 1014.2 hPa Calm     96% 0.0 mm 27 W/m2
08:24 8.8 °C 8.2 °C 1014.2 hPa Calm     96% 0.0 mm 29 W/m2
08:29 8.7 °C 8.1 °C 1014.2 hPa Calm     96% 0.0 mm 30 W/m2
08:34 8.8 °C 8.2 °C 1014.2 hPa Calm     96% 0.0 mm 33 W/m2
08:39 9 °C 8.2 °C 1014.2 hPa ESE 0.6 km/h 7.9 km/h 94.8% 0.0 mm 41 W/m2
08:44 9.1 °C 8.2 °C 1014.2 hPa Calm     94% 0.0 mm 47 W/m2
08:49 9.2 °C 8.2 °C 1014.2 hPa Calm     93.8% 0.0 mm 60 W/m2
08:54 9.2 °C 7.9 °C 1014.6 hPa Calm     91.4% 0.0 mm 60 W/m2
08:59 9.4 °C 7.8 °C 1014.6 hPa Calm     90% 0.0 mm 67 W/m2
09:04 9.6 °C 7.9 °C 1014.6 hPa Calm     89.3% 0.0 mm 73 W/m2
09:09 9.6 °C 7.9 °C 1014.6 hPa Calm     89% 0.0 mm 72 W/m2
09:14 9.7 °C 8 °C 1014.6 hPa Calm     89% 0.0 mm 66 W/m2
09:19 10.1 °C 8.2 °C 1014.6 hPa Calm   4 km/h 88.2% 0.0 mm 90 W/m2
09:24 10.2 °C 8.3 °C 1014.6 hPa Calm     88% 0.0 mm 96 W/m2
09:29 10.2 °C 8.4 °C 1014.6 hPa Calm     88.4% 0.0 mm 91 W/m2
09:34 10.2 °C 8.4 °C 1014.9 hPa Calm     88.2% 0.0 mm 88 W/m2
09:39 10.4 °C 8.5 °C 1014.9 hPa Calm     88% 0.0 mm 88 W/m2
09:44 10.5 °C 8.6 °C 1014.9 hPa Calm   4 km/h 88% 0.0 mm 86 W/m2
09:49 10.5 °C 8.6 °C 1014.6 hPa Calm   4 km/h 88.2% 0.0 mm 86 W/m2
09:54 10.5 °C 8.5 °C 1014.6 hPa Calm     87.7% 1.8 mm 74 W/m2
09:59 10.7 °C 8.7 °C 1014.6 hPa Calm     87.8% 1.8 mm 85 W/m2
10:04 10.7 °C 8.8 °C 1014.6 hPa Calm     88% 0.0 mm 105 W/m2
10:09 10.8 °C 8.7 °C 1014.6 hPa Calm     86.9% 0.0 mm 109 W/m2
10:14 10.8 °C 8.7 °C 1014.6 hPa Calm     86.7% 0.0 mm 105 W/m2
10:18 11 °C 8.9 °C 1014.6 hPa Calm     87% 0.0 mm 105 W/m2
10:23 11.1 °C 9.2 °C 1014.6 hPa Calm     88% 0.0 mm 105 W/m2
10:29 11.1 °C 9.3 °C 1014.6 hPa Calm     88.3% 0.0 mm 90 W/m2
10:34 11.1 °C 9.2 °C 1014.6 hPa Calm     88% 0.0 mm 102 W/m2
10:39 11.3 °C 9.4 °C 1014.6 hPa Calm     88% 0.0 mm 130 W/m2
10:44 11.5 °C 9.3 °C 1014.6 hPa Calm     86% 0.0 mm 132 W/m2
10:49 11.6 °C 9.3 °C 1014.6 hPa Calm     85.4% 0.0 mm 109 W/m2
10:54 11.7 °C 9.8 °C 1014.6 hPa Calm     88% 0.0 mm 92 W/m2
10:59 11.5 °C 9.7 °C 1014.2 hPa Calm     88.5% 0.0 mm 104 W/m2
11:04 11.4 °C 9.6 °C 1014.2 hPa Calm     88.4% 0.0 mm 165 W/m2
11:08 11.5 °C 9.2 °C 1014.2 hPa Calm     85.8% 0.0 mm 175 W/m2
11:14 11.7 °C 9.2 °C 1013.9 hPa Calm     84.2% 0.0 mm 182 W/m2
11:19 12.4 °C 9.6 °C 1014.2 hPa Calm     83.2% 0.0 mm 179 W/m2
11:22 13.2 °C 10.7 °C 1013.9 hPa Calm     85% 0.0 mm 121 W/m2
11:29 12.9 °C 10.6 °C 1013.9 hPa Calm     86% 0.0 mm 116 W/m2
11:33 12.8 °C 10.5 °C 1013.9 hPa Calm     86% 0.0 mm 150 W/m2
11:39 12.6 °C 10.4 °C 1013.5 hPa Calm     86.6% 0.0 mm 153 W/m2
11:44 12.3 °C 10.2 °C 1013.5 hPa Calm     87% 0.0 mm 158 W/m2
11:48 12.3 °C 10.2 °C 1013.5 hPa Calm     86.7% 0.0 mm 148 W/m2
11:53 12.4 °C 10.4 °C 1013.5 hPa Calm     87.5% 0.0 mm 146 W/m2
11:59 12.4 °C 10.8 °C 1013.5 hPa Calm     89.5% 0.0 mm 149 W/m2
12:04 12.4 °C 10.9 °C 1013.5 hPa Calm     90.4% 0.0 mm 154 W/m2
12:08 12.4 °C 10.7 °C 1013.2 hPa SE 0.4 km/h 4 km/h 89.8% 0.0 mm 168 W/m2
12:14 12.5 °C 10.4 °C 1013.2 hPa Calm     87.3% 0.0 mm 148 W/m2
12:19 12.5 °C 10.7 °C 1013.2 hPa Calm     89.2% 0.0 mm 117 W/m2
12:24 12.3 °C 11 °C 1012.9 hPa Calm     92% 0.0 mm 77 W/m2
12:29 12.3 °C 11.1 °C 1013.2 hPa Calm     92.5% 0.0 mm 73 W/m2
12:32 12.3 °C 11.2 °C 1013.2 hPa Calm     93% 0.0 mm 57 W/m2
12:39 12.2 °C 11.2 °C 1012.9 hPa Calm     94.3% 0.0 mm 61 W/m2
12:44 12 °C 11.2 °C 1012.9 hPa Calm     94.7% 0.0 mm 79 W/m2
12:48 12.1 °C 11.2 °C 1012.9 hPa Calm     94% 0.0 mm 90 W/m2
12:54 12.1 °C 11.3 °C 1012.9 hPa Calm     95.2% 0.0 mm 85 W/m2
12:59 12 °C 11.3 °C 1012.9 hPa Calm     95.2% 0.0 mm 65 W/m2
13:03 12 °C 11.2 °C 1012.9 hPa Calm     95% 0.0 mm 61 W/m2
13:09 11.9 °C 11.2 °C 1012.9 hPa Calm     95.3% 0.0 mm 79 W/m2
13:13 11.9 °C 11.4 °C 1012.9 hPa Calm     96.8% 0.0 mm 78 W/m2
13:17 11.8 °C 11.1 °C 1012.5 hPa Calm     95.7% 0.0 mm 83 W/m2
14:44 13.2 °C 11.6 °C 1013.5 hPa Calm     90% 0.0 mm 193 W/m2
14:49 13.2 °C 11.8 °C 1013.5 hPa Calm     90.9% 0.0 mm 206 W/m2
14:54 13.2 °C 11.6 °C 1013.5 hPa Calm   4 km/h 89.9% 0.0 mm 175 W/m2
14:59 13.2 °C 11.7 °C 1013.2 hPa Calm     90.8% 0.0 mm 101 W/m2
15:04 12.8 °C 11.5 °C 1013.2 hPa SE 0.6 km/h 7.9 km/h 91.4% 0.0 mm 87 W/m2
15:09 12.8 °C 11.5 °C 1013.5 hPa Calm     92% 0.0 mm 79 W/m2
15:14 12.8 °C 11.5 °C 1013.5 hPa Calm     92% 0.0 mm 71 W/m2
15:22 12.8 °C 11.4 °C 1013.5 hPa Calm     91.5% 0.0 mm 98 W/m2
15:29 12.3 °C 6.9 °C 1027.4 hPa East 0.4 km/h 4.3 km/h 69.8% 0.0 mm 116 W/m2
15:34 12.3 °C 7 °C 1027.4 hPa East 1.6 km/h 4.3 km/h 69.8% 0.0 mm 102 W/m2
Juneau County Weather
Compliments of Weather Underground - 2 mb